Time;durP1;ratioP1;P1;durP2;ratioP2;P2;SDS_P1;SDS_P2;PMS_P1;PMS_P2;Temp;Humidity;BMP_temperature;BMP_pressure;BME280_temperature;BME280_humidity;BME280_pressure;Samples;Min_cycle;Max_cycle;Signal;HPM_P1;HPM_P2
2022/07/05 00:01:00;;;;;;;5.82;2.35;;;18.80;99.90;;;;;;4994217;28;20101;-52
2022/07/05 00:03:32;;;;;;;1.65;1.55;;;18.70;99.90;;;;;;4993655;28;20443;-52
2022/07/05 00:05:58;;;;;;;5.72;1.80;;;18.60;99.90;;;;;;4992578;28;20011;-52
2022/07/05 00:08:25;;;;;;;2.63;1.70;;;18.40;99.90;;;;;;4993305;28;20069;-51
2022/07/05 00:10:50;;;;;;;2.35;1.73;;;18.30;99.90;;;;;;4992043;28;20026;-50
2022/07/05 00:13:16;;;;;;;2.38;1.60;;;18.20;99.90;;;;;;4993157;28;20034;-55
2022/07/05 00:15:42;;;;;;;1.90;1.67;;;18.20;99.90;;;;;;4992996;28;20030;-51
2022/07/05 00:18:08;;;;;;;3.50;1.80;;;18.10;99.90;;;;;;4993224;28;20022;-54
2022/07/05 00:20:33;;;;;;;3.03;1.70;;;18.10;99.90;;;;;;4993456;28;20030;-51
2022/07/05 00:22:59;;;;;;;6.75;1.30;;;18.10;99.90;;;;;;4993912;28;20030;-51
2022/07/05 00:25:25;;;;;;;1.85;1.35;;;18.10;99.90;;;;;;4993342;28;20022;-52
2022/07/05 00:27:53;;;;;;;3.30;1.67;;;18.00;99.90;;;;;;4993516;28;20385;-52
2022/07/05 00:30:19;;;;;;;1.10;1.10;;;17.70;99.90;;;;;;4992568;28;20053;-53
2022/07/05 00:32:44;;;;;;;5.18;1.15;;;17.70;99.90;;;;;;4993220;28;20060;-51
2022/07/05 00:35:10;;;;;;;1.75;1.35;;;17.60;99.90;;;;;;4994185;28;20041;-51
2022/07/05 00:37:36;;;;;;;2.65;1.38;;;17.50;99.90;;;;;;4993107;28;20027;-51
2022/07/05 00:40:03;;;;;;;1.58;1.27;;;17.50;99.90;;;;;;4992559;28;20530;-52
2022/07/05 00:42:29;;;;;;;1.45;1.35;;;17.50;99.90;;;;;;4994210;28;20069;-52
2022/07/05 00:44:55;;;;;;;1.42;1.38;;;17.50;99.90;;;;;;4993974;28;20023;-51
2022/07/05 00:47:20;;;;;;;4.07;1.10;;;17.40;99.90;;;;;;4994121;28;20019;-53
2022/07/05 00:49:46;;;;;;;1.38;1.20;;;17.50;99.90;;;;;;4994002;28;20022;-53
2022/07/05 00:52:12;;;;;;;1.00;0.90;;;17.50;99.90;;;;;;4993124;28;20026;-53
2022/07/05 00:54:38;;;;;;;2.17;1.25;;;17.50;99.90;;;;;;4993771;28;20030;-54
2022/07/05 00:57:05;;;;;;;3.38;1.00;;;17.60;99.90;;;;;;4994026;28;20036;-52
2022/07/05 00:59:31;;;;;;;1.58;1.08;;;17.50;99.90;;;;;;4993598;28;20362;-51
2022/07/05 01:01:57;;;;;;;2.60;1.15;;;17.50;99.90;;;;;;4993478;28;20034;-52
2022/07/05 01:04:23;;;;;;;1.70;1.00;;;17.50;99.90;;;;;;4992277;28;20023;-52
2022/07/05 01:06:51;;;;;;;5.25;1.33;;;17.40;99.90;;;;;;4992402;28;20376;-51
2022/07/05 01:09:19;;;;;;;1.88;1.27;;;17.40;99.90;;;;;;4993202;28;20026;-51
2022/07/05 01:11:49;;;;;;;1.58;0.93;;;17.40;99.90;;;;;;4992730;28;20113;-54
2022/07/05 01:14:20;;;;;;;1.90;0.88;;;17.40;99.90;;;;;;4990947;28;20398;-50
2022/07/05 01:16:46;;;;;;;2.25;0.90;;;17.50;99.90;;;;;;4992069;28;20033;-56
2022/07/05 01:19:13;;;;;;;4.30;1.30;;;17.40;99.90;;;;;;5007197;28;20060;-52
2022/07/05 01:21:41;;;;;;;2.63;1.42;;;17.40;99.90;;;;;;4991897;28;20109;-51
2022/07/05 01:24:14;;;;;;;1.20;1.10;;;17.40;99.90;;;;;;4991480;28;20030;-55
2022/07/05 01:26:41;;;;;;;1.73;1.08;;;17.40;99.90;;;;;;4990532;28;20117;-54
2022/07/05 01:29:08;;;;;;;3.63;0.80;;;17.40;99.90;;;;;;4992287;28;20379;-51
2022/07/05 01:31:37;;;;;;;1.10;0.88;;;17.40;99.90;;;;;;4992246;28;20030;-55
2022/07/05 01:34:04;;;;;;;3.17;1.10;;;17.40;99.90;;;;;;4991035;28;20493;-51
2022/07/05 01:36:29;;;;;;;2.35;1.00;;;17.40;99.90;;;;;;4992091;28;20034;-51
2022/07/05 01:38:55;;;;;;;1.38;1.27;;;17.30;99.90;;;;;;4991896;28;20034;-50
2022/07/05 01:41:21;;;;;;;4.78;1.10;;;17.30;99.90;;;;;;4990771;28;20447;-53
2022/07/05 01:43:47;;;;;;;2.10;1.10;;;17.30;99.90;;;;;;4993048;28;20025;-50
2022/07/05 01:46:15;;;;;;;2.53;1.33;;;17.30;99.90;;;;;;4993412;28;20094;-53
2022/07/05 01:48:41;;;;;;;2.25;1.30;;;17.20;99.90;;;;;;4992754;28;20015;-55
2022/07/05 01:51:18;;;;;;;3.13;2.17;;;17.20;99.90;;;;;;4992832;28;20393;-53
2022/07/05 01:53:46;;;;;;;3.90;1.10;;;17.20;99.90;;;;;;4992590;28;20038;-54
2022/07/05 01:56:12;;;;;;;1.33;1.17;;;17.20;99.90;;;;;;4992776;28;20018;-54
2022/07/05 01:58:39;;;;;;;1.77;1.00;;;17.20;99.90;;;;;;4992301;28;20026;-52
2022/07/05 02:01:04;;;;;;;1.95;1.25;;;17.10;99.90;;;;;;4991123;28;20027;-51
2022/07/05 02:03:31;;;;;;;3.63;1.70;;;17.20;99.90;;;;;;4992310;28;20027;-55
2022/07/05 02:05:56;;;;;;;4.65;1.48;;;17.20;99.90;;;;;;4991534;28;20030;-54
2022/07/05 02:08:29;;;;;;;1.23;1.13;;;17.10;99.90;;;;;;4991280;28;20034;-53
2022/07/05 02:10:55;;;;;;;1.40;1.30;;;17.20;99.90;;;;;;4991850;28;20022;-54
2022/07/05 02:13:21;;;;;;;3.90;1.30;;;17.20;99.90;;;;;;4991252;28;20023;-51
2022/07/05 02:15:47;;;;;;;2.10;1.35;;;17.10;99.90;;;;;;4988917;28;20033;-52
2022/07/05 02:18:13;;;;;;;3.60;1.05;;;17.10;99.90;;;;;;4989964;28;20024;-55
2022/07/05 02:20:39;;;;;;;4.43;1.48;;;17.10;99.90;;;;;;4990780;28;20573;-52
2022/07/05 02:23:05;;;;;;;3.42;1.65;;;17.20;99.90;;;;;;4989870;28;20069;-54
2022/07/05 02:25:31;;;;;;;1.15;1.00;;;17.10;99.90;;;;;;4990320;28;20054;-52
2022/07/05 02:27:57;;;;;;;2.75;1.30;;;17.10;99.90;;;;;;4989983;28;20390;-55
2022/07/05 02:30:23;;;;;;;9.25;1.92;;;17.10;99.90;;;;;;4990099;28;20250;-51
2022/07/05 02:32:49;;;;;;;1.77;1.13;;;17.10;99.90;;;;;;4990198;28;20067;-52
2022/07/05 02:35:15;;;;;;;3.13;1.45;;;17.20;99.90;;;;;;4989967;28;20033;-54
2022/07/05 02:37:41;;;;;;;1.58;1.05;;;17.10;99.90;;;;;;4988621;28;20042;-52
2022/07/05 02:40:11;;;;;;;2.63;0.95;;;17.10;99.90;;;;;;4990181;28;20445;-52
2022/07/05 02:42:38;;;;;;;4.93;1.23;;;17.10;99.90;;;;;;4991038;28;20026;-50
2022/07/05 02:45:05;;;;;;;5.28;1.33;;;17.00;99.90;;;;;;4991163;28;20030;-55
2022/07/05 02:47:31;;;;;;;1.33;1.23;;;17.10;99.90;;;;;;4991230;28;20055;-56
2022/07/05 02:50:10;;;;;;;4.15;1.55;;;17.10;99.90;;;;;;4991287;28;20545;-51
2022/07/05 02:52:36;;;;;;;4.22;1.25;;;17.10;99.90;;;;;;4991672;28;20524;-52
2022/07/05 02:55:03;;;;;;;4.72;1.70;;;17.00;99.90;;;;;;4992096;28;20026;-57
2022/07/05 02:57:29;;;;;;;2.47;1.60;;;17.10;99.90;;;;;;5006595;28;20022;-53
2022/07/05 02:59:55;;;;;;;2.58;1.45;;;17.10;99.90;;;;;;4990942;28;20050;-53
2022/07/05 03:02:23;;;;;;;2.45;1.23;;;17.00;99.90;;;;;;4991364;28;20365;-53
2022/07/05 03:04:49;;;;;;;1.80;1.27;;;17.10;99.90;;;;;;4991692;28;20023;-53
2022/07/05 03:07:15;;;;;;;2.08;1.75;;;17.10;99.90;;;;;;4990696;28;20416;-52
2022/07/05 03:09:40;;;;;;;7.85;1.50;;;17.10;99.90;;;;;;4991771;28;20052;-53
2022/07/05 03:12:07;;;;;;;4.05;1.50;;;17.10;99.90;;;;;;4991481;28;20034;-55
2022/07/05 03:14:32;;;;;;;4.15;1.73;;;17.10;99.90;;;;;;4992142;28;20207;-50
2022/07/05 03:16:58;;;;;;;6.30;1.50;;;17.10;99.90;;;;;;4991259;28;20394;-53
2022/07/05 03:19:24;;;;;;;7.47;1.60;;;17.20;99.90;;;;;;4990537;28;20372;-56
2022/07/05 03:21:49;;;;;;;4.25;1.20;;;17.20;99.90;;;;;;4989866;28;20070;-56
2022/07/05 03:24:15;;;;;;;5.35;1.88;;;17.30;99.90;;;;;;4991179;28;20029;-56
2022/07/05 03:26:41;;;;;;;2.50;1.33;;;17.20;99.90;;;;;;4989950;28;20022;-50
2022/07/05 03:29:07;;;;;;;1.20;1.10;;;17.30;99.90;;;;;;4989987;28;20038;-52
2022/07/05 03:31:33;;;;;;;3.95;1.10;;;17.30;99.90;;;;;;4990127;28;20062;-52
2022/07/05 03:33:59;;;;;;;3.42;1.30;;;17.20;99.90;;;;;;4990020;28;20584;-52
2022/07/05 03:36:24;;;;;;;3.42;1.58;;;17.20;99.90;;;;;;4990151;28;20030;-50
2022/07/05 03:38:50;;;;;;;2.88;1.10;;;17.10;99.90;;;;;;4990692;28;20053;-52
2022/07/05 03:41:16;;;;;;;4.78;1.10;;;17.10;99.90;;;;;;4990885;28;20045;-52
2022/07/05 03:43:42;;;;;;;2.20;1.40;;;17.20;99.90;;;;;;4990944;28;20022;-52
2022/07/05 03:46:07;;;;;;;3.70;1.30;;;17.20;99.90;;;;;;4990401;28;20477;-50
2022/07/05 03:48:34;;;;;;;10.95;1.70;;;17.10;99.90;;;;;;5006242;28;20085;-51
2022/07/05 03:50:59;;;;;;;3.15;1.27;;;17.10;99.90;;;;;;4989238;28;20034;-50
2022/07/05 03:53:25;;;;;;;1.52;1.20;;;17.20;99.90;;;;;;4991070;28;20031;-53
2022/07/05 03:55:51;;;;;;;1.20;1.10;;;17.20;99.90;;;;;;4991704;28;20031;-54
2022/07/05 03:58:17;;;;;;;1.17;1.08;;;17.20;99.90;;;;;;4990192;28;20034;-52
2022/07/05 04:00:42;;;;;;;9.30;1.10;;;17.10;99.90;;;;;;4988949;28;20026;-52
2022/07/05 04:03:08;;;;;;;1.27;1.17;;;17.10;99.90;;;;;;4990307;28;20362;-50
2022/07/05 04:05:34;;;;;;;1.75;1.30;;;17.10;99.90;;;;;;4992404;28;20037;-51
2022/07/05 04:08:00;;;;;;;2.13;1.27;;;17.10;99.90;;;;;;4994522;28;20084;-53
2022/07/05 04:10:26;;;;;;;1.85;1.10;;;17.20;99.90;;;;;;4994735;28;20034;-53
2022/07/05 04:12:51;;;;;;;1.38;1.27;;;17.20;99.90;;;;;;4994705;28;20544;-54
2022/07/05 04:15:17;;;;;;;4.68;1.42;;;17.30;99.90;;;;;;4994542;28;20113;-54
2022/07/05 04:17:47;;;;;;;3.17;1.35;;;17.30;99.90;;;;;;4993973;28;20058;-55
2022/07/05 04:20:13;;;;;;;4.88;1.65;;;17.30;99.90;;;;;;4993392;28;20049;-52
2022/07/05 04:22:39;;;;;;;2.63;1.42;;;17.40;99.90;;;;;;4992009;28;20619;-53
2022/07/05 04:25:17;;;;;;;4.50;1.13;;;17.50;99.90;;;;;;4992784;28;20255;-53
2022/07/05 04:27:50;;;;;;;1.42;1.27;;;17.50;99.90;;;;;;4994191;28;20117;-52
2022/07/05 04:30:17;;;;;;;2.88;1.30;;;17.60;99.90;;;;;;4994051;28;20069;-50
2022/07/05 04:32:43;;;;;;;7.05;1.63;;;17.60;99.90;;;;;;4994098;28;20026;-54
2022/07/05 04:35:09;;;;;;;1.38;1.27;;;17.60;99.90;;;;;;5009240;28;20485;-54
2022/07/05 04:37:35;;;;;;;2.88;1.58;;;17.60;99.90;;;;;;4993912;28;20069;-51
2022/07/05 04:40:02;;;;;;;6.13;1.52;;;17.60;99.90;;;;;;4992416;28;20026;-51
2022/07/05 04:42:28;;;;;;;4.50;1.80;;;17.50;99.90;;;;;;4992517;28;20102;-51
2022/07/05 04:44:53;;;;;;;5.50;2.33;;;17.40;99.90;;;;;;4992686;28;20133;-52
2022/07/05 04:47:19;;;;;;;7.70;2.03;;;17.40;99.90;;;;;;4992495;28;20018;-51
2022/07/05 04:49:45;;;;;;;2.03;1.60;;;17.30;99.90;;;;;;4992171;28;20026;-52
2022/07/05 04:52:10;;;;;;;1.65;1.55;;;17.30;99.90;;;;;;4992541;28;20114;-55
2022/07/05 04:54:36;;;;;;;2.83;2.10;;;17.40;99.90;;;;;;4993081;28;20548;-50
2022/07/05 04:57:02;;;;;;;3.58;1.42;;;17.40;99.90;;;;;;4991632;28;20026;-54
2022/07/05 04:59:28;;;;;;;2.70;1.65;;;17.50;99.90;;;;;;4992422;28;20393;-50
2022/07/05 05:01:54;;;;;;;3.60;2.05;;;17.50;99.90;;;;;;4993468;28;20034;-52
2022/07/05 05:04:20;;;;;;;2.33;1.60;;;17.40;99.90;;;;;;4993413;28;20030;-52
2022/07/05 05:06:45;;;;;;;1.95;1.60;;;17.40;99.90;;;;;;4993739;28;20026;-50
2022/07/05 05:09:11;;;;;;;7.70;1.98;;;17.40;99.90;;;;;;4993097;28;20017;-51
2022/07/05 05:11:37;;;;;;;2.20;1.50;;;17.40;99.90;;;;;;4992510;28;20392;-51
2022/07/05 05:14:02;;;;;;;2.28;2.08;;;17.40;99.90;;;;;;4992874;28;20038;-52
2022/07/05 05:16:28;;;;;;;2.20;2.08;;;17.50;99.90;;;;;;4992617;28;20038;-52
2022/07/05 05:18:54;;;;;;;3.20;1.60;;;17.50;99.90;;;;;;4991888;28;20019;-52
2022/07/05 05:21:19;;;;;;;3.55;2.00;;;17.50;99.90;;;;;;4992809;28;20035;-55
2022/07/05 05:23:45;;;;;;;2.40;2.20;;;17.40;99.90;;;;;;4992751;28;20129;-54
2022/07/05 05:26:11;;;;;;;2.30;2.08;;;17.50;99.90;;;;;;4992359;28;20027;-53
2022/07/05 05:28:37;;;;;;;4.22;2.13;;;17.40;99.90;;;;;;4991917;28;20528;-50
2022/07/05 05:31:02;;;;;;;4.20;2.50;;;17.40;99.90;;;;;;4993057;28;20050;-50
2022/07/05 05:33:28;;;;;;;6.35;2.17;;;17.40;99.90;;;;;;4991391;28;20069;-52
2022/07/05 05:35:54;;;;;;;2.95;2.35;;;17.40;99.90;;;;;;4992065;28;20036;-52
2022/07/05 05:38:19;;;;;;;3.05;1.95;;;17.50;99.90;;;;;;4993622;28;20034;-53
2022/07/05 05:40:45;;;;;;;2.00;1.88;;;17.60;99.90;;;;;;4993238;28;20030;-56
2022/07/05 05:43:12;;;;;;;5.93;2.35;;;17.50;99.90;;;;;;4993261;28;20034;-54
2022/07/05 05:45:37;;;;;;;5.53;2.25;;;17.50;99.90;;;;;;4992804;28;20053;-53
2022/07/05 05:48:04;;;;;;;3.92;2.67;;;17.40;99.90;;;;;;4992425;28;20426;-53
2022/07/05 05:50:31;;;;;;;5.70;3.08;;;17.40;99.90;;;;;;4991524;28;20026;-52
2022/07/05 05:52:57;;;;;;;4.65;2.70;;;17.50;99.90;;;;;;4990593;28;20041;-52
2022/07/05 05:55:25;;;;;;;4.72;2.58;;;17.50;99.90;;;;;;4990732;28;20440;-52
2022/07/05 05:57:51;;;;;;;4.22;2.17;;;17.60;99.90;;;;;;4992503;28;20022;-54
2022/07/05 06:00:17;;;;;;;2.58;2.17;;;17.70;99.90;;;;;;4992348;28;20030;-56
2022/07/05 06:02:44;;;;;;;2.30;1.70;;;17.80;99.90;;;;;;4991955;28;20053;-51
2022/07/05 06:05:10;;;;;;;6.75;1.90;;;17.90;99.90;;;;;;4991881;28;20027;-52
2022/07/05 06:07:53;;;;;;;2.15;1.80;;;17.90;99.90;;;;;;4992677;28;20489;-53
2022/07/05 06:10:26;;;;;;;8.35;2.05;;;18.00;99.90;;;;;;4992326;28;20389;-52
2022/07/05 06:12:53;;;;;;;3.17;2.00;;;18.00;99.90;;;;;;4992423;28;20019;-52
2022/07/05 06:15:19;;;;;;;3.17;2.60;;;18.10;99.90;;;;;;4992379;28;20033;-54
2022/07/05 06:17:46;;;;;;;11.52;2.10;;;18.20;99.90;;;;;;4992308;28;20085;-52
2022/07/05 06:20:20;;;;;;;2.17;2.00;;;18.20;99.90;;;;;;4992208;28;20101;-55
2022/07/05 06:22:46;;;;;;;2.33;2.15;;;18.20;99.90;;;;;;4992251;28;20058;-51
2022/07/05 06:25:12;;;;;;;2.33;2.10;;;18.30;99.90;;;;;;5007119;28;20059;-54
2022/07/05 06:27:50;;;;;;;2.30;2.10;;;18.40;99.90;;;;;;4991515;28;20098;-51
2022/07/05 06:30:20;;;;;;;2.85;2.20;;;18.60;99.90;;;;;;4992173;28;20041;-53
2022/07/05 06:32:48;;;;;;;2.38;2.17;;;18.60;99.90;;;;;;4992289;28;20053;-56
2022/07/05 06:35:14;;;;;;;3.15;2.13;;;18.70;99.90;;;;;;4990334;28;20023;-55
2022/07/05 06:38:01;;;;;;;2.10;1.90;;;18.70;99.90;;;;;;4991058;28;20054;-55
2022/07/05 06:40:36;;;;;;;2.35;1.98;;;19.00;99.90;;;;;;5006758;28;20042;-54
2022/07/05 06:43:04;;;;;;;2.40;1.70;;;19.00;99.90;;;;;;4990829;28;20033;-55
2022/07/05 06:45:31;;;;;;;2.17;1.90;;;19.10;99.90;;;;;;4990803;28;20018;-53
2022/07/05 06:48:04;;;;;;;6.03;1.90;;;19.40;99.90;;;;;;5032004;23;20058;-85
2022/07/05 06:50:32;;;;;;;1.85;1.63;;;19.60;99.90;;;;;;5048297;28;20492;-82
2022/07/05 06:52:59;;;;;;;2.00;1.52;;;19.80;99.90;;;;;;5027946;28;20041;-83
2022/07/05 06:55:27;;;;;;;1.75;1.33;;;19.80;99.90;;;;;;5013418;28;20069;-82
2022/07/05 06:58:07;;;;;;;5.63;1.35;;;19.90;99.90;;;;;;5013452;28;20060;-83
2022/07/05 07:00:35;;;;;;;2.50;1.60;;;19.60;99.90;;;;;;5013614;28;20084;-84
2022/07/05 07:03:03;;;;;;;1.70;1.35;;;19.70;99.90;;;;;;5013451;28;20072;-83
2022/07/05 07:05:29;;;;;;;3.33;2.22;;;19.90;99.90;;;;;;5011846;28;20026;-84
2022/07/05 07:10:42;;;;;;;2.25;2.05;;;19.40;99.90;;;;;;5012063;28;20037;-85
2022/07/05 07:13:08;;;;;;;4.55;2.20;;;19.80;99.90;;;;;;5012365;28;20026;-82
2022/07/05 07:15:34;;;;;;;1.70;1.42;;;19.80;99.90;;;;;;5012603;28;20030;-84
2022/07/05 07:18:01;;;;;;;5.20;1.60;;;20.00;99.90;;;;;;5013273;28;20026;-83
2022/07/05 07:20:27;;;;;;;4.60;1.77;;;20.10;99.90;;;;;;5012753;28;20037;-83
2022/07/05 07:22:54;;;;;;;2.17;1.58;;;20.10;99.90;;;;;;5028384;28;20026;-82
2022/07/05 07:25:23;;;;;;;2.10;1.40;;;20.30;99.90;;;;;;5013330;28;20033;-82
2022/07/05 07:27:53;;;;;;;4.38;1.30;;;20.50;99.90;;;;;;5013022;28;20030;-84
2022/07/05 07:30:26;;;;;;;2.28;1.60;;;20.70;99.90;;;;;;5012994;28;20477;-84
2022/07/05 07:32:55;;;;;;;4.05;1.40;;;20.60;99.90;;;;;;5013184;28;20488;-83
2022/07/05 07:35:21;;;;;;;5.90;2.00;;;20.80;99.90;;;;;;5011308;28;20037;-83
2022/07/05 07:37:48;;;;;;;3.10;1.83;;;20.80;99.90;;;;;;5012601;28;20026;-81
2022/07/05 07:40:16;;;;;;;11.20;2.50;;;21.00;99.90;;;;;;5014004;28;20022;-80
2022/07/05 07:42:43;;;;;;;5.07;1.98;;;20.70;99.90;;;;;;5016502;28;20105;-83
2022/07/05 07:45:09;;;;;;;1.95;1.25;;;21.00;99.90;;;;;;5016527;28;20022;-82
2022/07/05 07:50:58;;;;;;;2.70;1.92;;;21.70;99.90;;;;;;5013827;28;20057;-85
2022/07/05 07:53:25;;;;;;;3.67;2.03;;;21.70;99.90;;;;;;5016566;28;20026;-81
2022/07/05 07:55:52;;;;;;;3.85;2.08;;;21.80;99.90;;;;;;5016467;28;20661;-84
2022/07/05 07:58:17;;;;;;;5.28;1.80;;;21.10;99.90;;;;;;5016476;28;20022;-85
2022/07/05 08:00:44;;;;;;;3.83;2.20;;;20.90;99.90;;;;;;5015898;28;20041;-82
2022/07/05 08:03:11;;;;;;;2.20;2.00;;;21.00;99.90;;;;;;5016423;28;20026;-84
2022/07/05 08:05:37;;;;;;;2.20;2.00;;;21.10;99.90;;;;;;5014958;28;20087;-84
2022/07/05 08:08:03;;;;;;;3.50;1.77;;;21.30;99.90;;;;;;5016069;28;20097;-81
2022/07/05 08:10:30;;;;;;;3.58;1.80;;;21.40;99.90;;;;;;5012115;28;20380;-82
2022/07/05 08:12:55;;;;;;;2.95;1.88;;;21.60;99.90;;;;;;4995593;28;20030;-82
2022/07/05 08:15:22;;;;;;;2.63;1.90;;;21.60;99.90;;;;;;4995636;28;20018;-83
2022/07/05 08:23:17;;;;;;;2.70;2.17;;;22.00;99.90;;;;;;4996312;28;20378;-82
2022/07/05 08:25:43;;;;;;;2.40;2.00;;;22.20;99.90;;;;;;4996436;28;20023;-82
2022/07/05 08:28:09;;;;;;;8.48;2.15;;;22.40;99.90;;;;;;4995087;28;20038;-83
2022/07/05 08:30:35;;;;;;;3.40;2.28;;;22.60;99.90;;;;;;4995152;28;20039;-83
2022/07/05 08:33:01;;;;;;;3.83;2.30;;;23.00;99.90;;;;;;4994940;28;20049;-85
2022/07/05 08:35:26;;;;;;;2.08;1.88;;;22.70;99.90;;;;;;5004036;28;20080;-82
2022/07/05 08:37:53;;;;;;;4.97;2.28;;;22.60;99.90;;;;;;5015824;28;20030;-82
2022/07/05 08:40:25;;;;;;;2.60;2.08;;;22.40;99.90;;;;;;5015752;28;20036;-84
2022/07/05 08:42:52;;;;;;;4.05;2.40;;;22.40;99.90;;;;;;5015667;28;20053;-83
2022/07/05 08:45:19;;;;;;;6.43;2.13;;;22.40;99.90;;;;;;5013452;28;20033;-85
2022/07/05 08:47:46;;;;;;;2.38;1.77;;;22.50;99.90;;;;;;5012871;28;20133;-81
2022/07/05 08:50:14;;;;;;;2.80;1.90;;;22.70;99.90;;;;;;5013477;28;20026;-84
2022/07/05 08:52:41;;;;;;;5.32;2.38;;;22.90;99.90;;;;;;5015583;28;20105;-84
2022/07/05 08:55:07;;;;;;;3.03;1.55;;;23.00;99.90;;;;;;5015014;28;20026;-85
2022/07/05 08:57:33;;;;;;;5.80;2.50;;;23.10;99.90;;;;;;5014239;28;20057;-81
2022/07/05 08:59:59;;;;;;;4.00;2.22;;;23.00;99.90;;;;;;5008167;28;20053;-82
2022/07/05 09:02:24;;;;;;;8.75;2.25;;;23.10;99.90;;;;;;5013807;28;20052;-84
2022/07/05 09:04:51;;;;;;;3.08;2.30;;;22.70;99.90;;;;;;5012222;28;20377;-81
2022/07/05 09:07:20;;;;;;;2.78;1.95;;;22.90;99.90;;;;;;5012568;28;20026;-83
2022/07/05 09:09:48;;;;;;;5.30;2.20;;;23.50;99.90;;;;;;5012668;28;20029;-82
2022/07/05 09:12:14;;;;;;;5.25;1.70;;;23.40;99.90;;;;;;5012888;28;20065;-83
2022/07/05 09:14:40;;;;;;;6.47;1.90;;;23.00;99.90;;;;;;5027233;28;20029;-84
2022/07/05 09:17:06;;;;;;;4.55;2.38;;;23.00;99.90;;;;;;5030241;28;20084;-80
2022/07/05 09:19:34;;;;;;;1.95;1.75;;;23.10;99.90;;;;;;5029775;28;20022;-84
2022/07/05 09:22:04;;;;;;;2.95;2.40;;;23.50;99.90;;;;;;5044071;28;20022;-81
2022/07/05 09:24:33;;;;;;;4.28;1.95;;;23.60;99.90;;;;;;5025547;28;20029;-83
2022/07/05 09:27:05;;;;;;;3.33;1.90;;;23.80;99.90;;;;;;5026113;28;20026;-81
2022/07/05 09:29:31;;;;;;;5.38;2.22;;;24.20;99.90;;;;;;5024666;28;20057;-81
2022/07/05 09:31:57;;;;;;;3.97;1.75;;;24.20;99.90;;;;;;5013859;28;20065;-82
2022/07/05 09:34:23;;;;;;;2.50;1.88;;;24.00;99.90;;;;;;5011399;28;20410;-80
2022/07/05 09:36:56;;;;;;;3.47;1.55;;;23.50;99.90;;;;;;5012365;28;20036;-82
2022/07/05 09:39:33;;;;;;;1.67;1.50;;;23.50;99.90;;;;;;5010745;28;20025;-84
2022/07/05 09:42:11;;;;;;;5.03;1.60;;;23.80;99.90;;;;;;5019263;28;20483;-86
2022/07/05 09:44:41;;;;;;;2.15;1.60;;;24.50;99.90;;;;;;5012148;28;20025;-81
2022/07/05 09:47:12;;;;;;;3.10;1.40;;;24.90;99.90;;;;;;5011078;28;20590;-84
2022/07/05 09:49:43;;;;;;;3.75;1.70;;;24.90;99.90;;;;;;5011040;28;20309;-82
2022/07/05 09:52:10;;;;;;;2.08;1.30;;;24.20;99.90;;;;;;5012189;28;20036;-84
2022/07/05 09:54:36;;;;;;;6.40;1.80;;;24.40;99.90;;;;;;5011888;28;20101;-83
2022/07/05 09:57:01;;;;;;;8.55;2.33;;;24.00;99.90;;;;;;5010502;28;20030;-84
2022/07/05 09:59:27;;;;;;;2.85;1.60;;;24.20;99.80;;;;;;5011269;28;20615;-81
2022/07/05 10:01:53;;;;;;;3.45;1.73;;;24.20;99.70;;;;;;5010956;28;20026;-85
2022/07/05 10:04:19;;;;;;;4.10;1.50;;;24.80;99.90;;;;;;5011159;28;20393;-82
2022/07/05 10:06:46;;;;;;;2.67;1.75;;;25.30;99.50;;;;;;5011660;28;20240;-85
2022/07/05 10:09:14;;;;;;;2.75;1.70;;;25.40;99.60;;;;;;5010510;28;20022;-81
2022/07/05 10:11:42;;;;;;;2.13;1.25;;;25.00;98.80;;;;;;5001386;28;20105;-81
2022/07/05 10:14:18;;;;;;;3.47;1.48;;;24.80;99.00;;;;;;5015094;28;20459;-84
2022/07/05 10:16:57;;;;;;;2.08;1.25;;;24.20;99.90;;;;;;5024723;28;20227;-83
2022/07/05 10:19:29;;;;;;;4.13;1.63;;;24.20;99.90;;;;;;5029610;28;20148;-85
2022/07/05 10:21:56;;;;;;;2.63;1.50;;;24.40;99.90;;;;;;5030948;28;20026;-82
2022/07/05 10:24:22;;;;;;;3.13;1.40;;;25.00;99.90;;;;;;5030722;28;20026;-82
2022/07/05 10:26:49;;;;;;;3.65;1.52;;;25.40;99.90;;;;;;5031173;28;20022;-82
2022/07/05 10:29:17;;;;;;;4.78;1.30;;;25.60;98.00;;;;;;5023971;28;20026;-83
2022/07/05 10:31:44;;;;;;;1.70;1.02;;;25.10;96.20;;;;;;5004265;28;20026;-81
2022/07/05 10:34:12;;;;;;;1.45;1.35;;;25.00;99.20;;;;;;5004281;28;20033;-84
2022/07/05 10:36:40;;;;;;;4.50;1.63;;;25.00;98.80;;;;;;5003290;28;20096;-82
2022/07/05 10:39:08;;;;;;;3.38;1.98;;;24.40;98.60;;;;;;5000580;28;20167;-82
2022/07/05 10:41:35;;;;;;;1.88;1.33;;;24.90;99.90;;;;;;5001148;28;20028;-84
2022/07/05 10:44:01;;;;;;;3.05;1.60;;;25.30;97.60;;;;;;5000016;28;20026;-82
2022/07/05 10:46:35;;;;;;;2.42;1.48;;;25.50;97.80;;;;;;5001333;28;20026;-81
2022/07/05 10:49:17;;;;;;;4.72;1.30;;;25.80;97.50;;;;;;4999579;28;20132;-82
2022/07/05 10:51:44;;;;;;;3.80;1.30;;;25.90;95.80;;;;;;5000551;28;20053;-82
2022/07/05 10:54:10;;;;;;;2.55;1.60;;;26.50;95.30;;;;;;5001377;28;20041;-83
2022/07/05 10:56:36;;;;;;;5.35;1.58;;;26.90;95.70;;;;;;5000053;28;20038;-84
2022/07/05 10:59:09;;;;;;;2.53;1.48;;;27.00;94.90;;;;;;5000895;28;20022;-83
2022/07/05 11:01:41;;;;;;;4.45;1.80;;;26.60;94.90;;;;;;4999966;28;20029;-84
2022/07/05 11:04:15;;;;;;;5.20;1.73;;;26.10;94.20;;;;;;5000774;28;20037;-85
2022/07/05 11:06:42;;;;;;;3.05;1.55;;;26.50;94.20;;;;;;4999749;28;20026;-84
2022/07/05 11:09:11;;;;;;;6.45;1.30;;;26.60;96.10;;;;;;5000401;28;20101;-83
2022/07/05 11:11:37;;;;;;;1.92;1.33;;;26.80;94.50;;;;;;5000549;28;20060;-85
2022/07/05 11:14:28;;;;;;;6.85;1.38;;;26.60;93.50;;;;;;5002752;28;20042;-82
2022/07/05 11:17:09;;;;;;;4.57;1.38;;;26.40;94.20;;;;;;5004624;28;20026;-82
2022/07/05 11:19:58;;;;;;;1.70;1.10;;;26.50;94.30;;;;;;5004361;28;20057;-81
2022/07/05 11:22:25;;;;;;;3.10;1.10;;;26.80;92.80;;;;;;5004822;28;20056;-84
2022/07/05 11:24:51;;;;;;;2.00;1.35;;;26.50;94.30;;;;;;5004996;28;20123;-84
2022/07/05 11:27:17;;;;;;;2.85;1.20;;;26.50;93.90;;;;;;5005036;28;20108;-85
2022/07/05 11:29:51;;;;;;;3.13;1.27;;;26.10;91.40;;;;;;5003224;28;20398;-83
2022/07/05 11:32:19;;;;;;;3.92;1.55;;;26.70;91.50;;;;;;5005186;28;20030;-84
2022/07/05 11:34:49;;;;;;;1.77;1.48;;;27.10;90.30;;;;;;5003413;28;20117;-83
2022/07/05 11:37:23;;;;;;;1.15;0.98;;;27.00;90.60;;;;;;5003666;28;20057;-84
2022/07/05 11:40:12;;;;;;;7.40;1.42;;;26.60;92.60;;;;;;5001864;28;20056;-84
2022/07/05 11:42:46;;;;;;;5.00;2.08;;;26.00;93.50;;;;;;5007568;28;20040;-83
2022/07/05 11:45:14;;;;;;;4.22;1.50;;;25.60;94.10;;;;;;5014782;28;20038;-84
2022/07/05 11:47:41;;;;;;;2.05;1.80;;;25.30;95.20;;;;;;5009924;28;20455;-83
2022/07/05 11:50:08;;;;;;;2.60;1.60;;;25.10;95.70;;;;;;5014573;28;20034;-82
2022/07/05 11:52:36;;;;;;;1.15;1.10;;;25.50;96.20;;;;;;5009511;28;20113;-84
2022/07/05 11:55:05;;;;;;;4.65;1.23;;;26.10;96.20;;;;;;5014217;28;20030;-81
2022/07/05 11:57:31;;;;;;;1.48;1.38;;;26.70;94.90;;;;;;5014675;28;20096;-85
2022/07/05 11:59:57;;;;;;;5.93;1.92;;;27.50;94.20;;;;;;5014879;28;20443;-85
2022/07/05 12:02:23;;;;;;;4.32;1.33;;;27.60;92.40;;;;;;5014125;28;20032;-83
2022/07/05 12:04:54;;;;;;;2.85;1.40;;;27.50;94.00;;;;;;5013333;28;20021;-82
2022/07/05 12:07:26;;;;;;;5.50;1.45;;;26.70;94.00;;;;;;5013410;28;20481;-83
2022/07/05 12:12:42;;;;;;;3.38;1.85;;;25.70;93.50;;;;;;5013594;28;20531;-82
2022/07/05 12:15:17;;;;;;;6.20;1.80;;;25.40;94.60;;;;;;5013522;28;20567;-82
2022/07/05 12:17:45;;;;;;;8.10;2.10;;;25.30;95.00;;;;;;5013614;28;20084;-83
2022/07/05 12:20:13;;;;;;;5.55;1.58;;;25.10;94.80;;;;;;5013548;28;20033;-83
2022/07/05 12:22:45;;;;;;;4.05;1.55;;;25.10;95.00;;;;;;5012230;28;20026;-84
2022/07/05 12:25:13;;;;;;;1.90;1.20;;;25.90;94.30;;;;;;5011274;28;20022;-81
2022/07/05 12:27:42;;;;;;;5.28;1.35;;;27.20;94.40;;;;;;5013614;28;20029;-82
2022/07/05 12:30:10;;;;;;;1.60;1.50;;;27.70;92.90;;;;;;5013416;28;20113;-84
2022/07/05 12:33:05;;;;;;;7.13;1.20;;;29.50;91.10;;;;;;5013202;28;20029;-84
2022/07/05 12:35:45;;;;;;;6.18;1.27;;;30.00;88.40;;;;;;5011641;28;20030;-81
2022/07/05 12:38:20;;;;;;;4.40;2.03;;;30.50;85.90;;;;;;5013240;28;20084;-84
2022/07/05 12:40:48;;;;;;;3.08;1.10;;;29.50;81.50;;;;;;5013013;28;20049;-83
2022/07/05 12:43:17;;;;;;;3.40;1.40;;;29.40;80.40;;;;;;5011728;28;20489;-82
2022/07/05 12:45:58;;;;;;;2.13;1.38;;;30.50;77.50;;;;;;5013075;28;20026;-81
2022/07/05 12:48:43;;;;;;;2.80;1.05;;;32.50;77.70;;;;;;5012837;28;20100;-82
2022/07/05 12:51:10;;;;;;;7.43;0.93;;;33.40;72.00;;;;;;5028350;28;20053;-84
2022/07/05 12:59:13;;;;;;;2.92;1.00;;;33.60;71.10;;;;;;5013279;28;20029;-85
2022/07/05 13:01:42;;;;;;;3.17;1.20;;;33.90;65.30;;;;;;5012617;28;20022;-84
2022/07/05 13:04:13;;;;;;;1.35;0.98;;;34.50;64.80;;;;;;5011692;28;20026;-83
2022/07/05 13:06:55;;;;;;;7.13;1.08;;;34.70;64.50;;;;;;5012603;28;20041;-83
2022/07/05 13:09:32;;;;;;;11.57;1.30;;;34.40;66.10;;;;;;5011297;28;20159;-85